createdAt,value
2018-11-07T00:02:21.043Z,7.03
2018-11-07T00:04:49.132Z,8.10
2018-11-07T00:07:17.037Z,9.37
2018-11-07T00:09:44.999Z,9.40
2018-11-07T00:12:13.032Z,10.10
2018-11-07T00:14:40.463Z,9.43
2018-11-07T00:17:08.407Z,9.43
2018-11-07T00:19:36.494Z,9.07
2018-11-07T00:22:04.851Z,9.80
2018-11-07T00:24:32.815Z,8.97
2018-11-07T00:27:00.789Z,8.47
2018-11-07T00:29:28.716Z,9.80
2018-11-07T00:31:56.847Z,9.53
2018-11-07T00:34:24.787Z,9.43
2018-11-07T00:36:52.756Z,9.63
2018-11-07T00:39:20.723Z,9.30
2018-11-07T00:41:48.764Z,8.83
2018-11-07T00:44:16.768Z,8.23
2018-11-07T00:46:44.692Z,8.60
2018-11-07T00:49:12.611Z,7.90
2018-11-07T00:51:40.581Z,8.90
2018-11-07T00:54:08.500Z,8.27
2018-11-07T00:56:36.439Z,8.57
2018-11-07T00:59:04.451Z,8.80
2018-11-07T01:01:32.420Z,7.93
2018-11-07T01:04:00.439Z,8.10
2018-11-07T01:06:28.470Z,8.90
2018-11-07T01:08:56.553Z,8.77
2018-11-07T01:11:25.071Z,10.93
2018-11-07T01:13:53.245Z,11.10
2018-11-07T01:16:21.203Z,12.50
2018-11-07T01:18:49.172Z,11.40
2018-11-07T01:21:17.302Z,11.30
2018-11-07T01:23:45.308Z,11.80
2018-11-07T01:26:13.657Z,13.90
2018-11-07T01:28:41.622Z,13.60
2018-11-07T01:31:09.653Z,12.73
2018-11-07T01:33:37.576Z,13.00
2018-11-07T01:36:05.515Z,13.27
2018-11-07T01:38:33.614Z,12.90
2018-11-07T01:41:01.536Z,12.13
2018-11-07T01:43:29.472Z,12.83
2018-11-07T01:45:57.448Z,12.47
2018-11-07T01:48:25.429Z,11.80
2018-11-07T01:50:53.380Z,11.50
2018-11-07T01:53:22.207Z,12.90
2018-11-07T01:55:50.245Z,12.73
2018-11-07T01:58:18.227Z,12.53
2018-11-07T02:00:46.143Z,10.80
2018-11-07T02:03:14.355Z,11.87
2018-11-07T02:05:42.332Z,11.70
2018-11-07T02:08:10.324Z,10.80
2018-11-07T02:10:38.337Z,16.50
2018-11-07T02:13:06.644Z,17.30
2018-11-07T02:15:34.686Z,16.57
2018-11-07T02:18:02.654Z,13.80
2018-11-07T02:20:30.568Z,12.37
2018-11-07T02:22:58.595Z,13.03
2018-11-07T02:25:26.553Z,11.70
2018-11-07T02:27:54.640Z,10.57
2018-11-07T02:30:22.708Z,10.90
2018-11-07T02:32:50.676Z,11.07
2018-11-07T02:35:18.578Z,11.03
2018-11-07T02:37:46.522Z,10.53
2018-11-07T02:40:14.585Z,12.03
2018-11-07T02:42:42.759Z,12.30
2018-11-07T02:45:10.661Z,10.80
2018-11-07T02:47:38.964Z,10.93
2018-11-07T02:50:07.338Z,11.50
2018-11-07T02:52:35.272Z,11.97
2018-11-07T02:55:03.278Z,12.80
2018-11-07T02:57:31.453Z,11.37
2018-11-07T02:59:59.427Z,11.80
2018-11-07T03:02:27.373Z,12.40
2018-11-07T03:04:55.295Z,12.97
2018-11-07T03:07:23.335Z,12.03
2018-11-07T03:09:51.291Z,11.90
2018-11-07T03:12:19.239Z,11.93
2018-11-07T03:14:46.725Z,10.37
2018-11-07T03:17:14.743Z,10.47
2018-11-07T03:19:42.652Z,11.17
2018-11-07T03:22:10.683Z,10.00
2018-11-07T03:24:38.597Z,10.47
2018-11-07T03:27:06.543Z,10.33
2018-11-07T03:29:34.593Z,9.63
2018-11-07T03:32:02.516Z,10.13
2018-11-07T03:34:30.570Z,10.70
2018-11-07T03:36:58.536Z,9.40
2018-11-07T03:39:26.505Z,9.27
2018-11-07T03:41:54.441Z,8.97
2018-11-07T03:44:22.359Z,8.20
2018-11-07T03:46:50.307Z,8.03
2018-11-07T03:49:18.270Z,8.53
2018-11-07T03:51:46.197Z,8.10
2018-11-07T03:54:14.211Z,8.50
2018-11-07T03:56:42.257Z,7.70
2018-11-07T03:59:10.335Z,7.63
2018-11-07T04:01:38.239Z,6.67
2018-11-07T04:04:06.156Z,7.30
2018-11-07T04:06:34.076Z,6.50
2018-11-07T04:09:03.322Z,7.40
2018-11-07T04:11:31.248Z,7.40
2018-11-07T04:13:58.867Z,8.43
2018-11-07T04:16:26.967Z,7.57
2018-11-07T04:18:54.906Z,8.60
2018-11-07T04:21:22.909Z,7.00
2018-11-07T04:23:54.994Z,7.13
2018-11-07T04:26:22.986Z,7.13
2018-11-07T04:28:50.912Z,7.60
2018-11-07T04:31:18.880Z,6.70
2018-11-07T04:33:46.852Z,7.80
2018-11-07T04:36:14.841Z,8.07
2018-11-07T04:38:42.837Z,7.07
2018-11-07T04:41:10.799Z,7.07
2018-11-07T04:43:38.743Z,7.17
2018-11-07T04:46:06.769Z,7.17
2018-11-07T04:48:34.842Z,7.07
2018-11-07T04:51:02.746Z,6.83
2018-11-07T04:53:30.677Z,7.67
2018-11-07T04:55:58.647Z,6.73
2018-11-07T04:58:26.547Z,7.47
2018-11-07T05:00:54.489Z,7.33
2018-11-07T05:03:22.495Z,7.50
2018-11-07T05:05:50.531Z,7.90
2018-11-07T05:08:18.553Z,7.30
2018-11-07T05:10:46.496Z,7.97
2018-11-07T05:13:13.992Z,7.57
2018-11-07T05:15:41.936Z,8.20
2018-11-07T05:18:10.041Z,8.37
2018-11-07T05:20:37.964Z,7.23
2018-11-07T05:23:05.917Z,6.90
2018-11-07T05:25:33.875Z,8.30
2018-11-07T05:28:01.988Z,8.10
2018-11-07T05:30:30.000Z,7.30
2018-11-07T05:32:57.985Z,7.23
2018-11-07T05:35:25.937Z,7.90
2018-11-07T05:37:53.987Z,7.87
2018-11-07T05:40:23.172Z,7.80
2018-11-07T05:42:51.132Z,7.83
2018-11-07T05:45:19.272Z,8.03
2018-11-07T05:47:47.175Z,8.20
2018-11-07T05:50:15.109Z,7.87
2018-11-07T05:52:43.039Z,7.20
2018-11-07T05:55:10.990Z,7.80
2018-11-07T05:57:39.177Z,9.10
2018-11-07T06:00:08.172Z,8.77
2018-11-07T06:02:36.093Z,8.30
2018-11-07T06:05:04.320Z,9.80
2018-11-07T06:07:32.232Z,9.63
2018-11-07T06:10:00.160Z,10.93
2018-11-07T06:12:28.098Z,10.03
2018-11-07T06:14:56.070Z,10.67
2018-11-07T06:17:25.043Z,11.30
2018-11-07T06:19:53.009Z,12.77
2018-11-07T06:22:20.962Z,11.10
2018-11-07T06:24:48.986Z,11.17
2018-11-07T06:27:16.831Z,11.47
2018-11-07T06:29:44.873Z,11.40
2018-11-07T06:32:12.792Z,11.13
2018-11-07T06:34:40.773Z,10.17
2018-11-07T06:37:08.725Z,8.80
2018-11-07T06:39:36.653Z,9.23
2018-11-07T06:42:05.304Z,8.20
2018-11-07T06:44:33.309Z,8.40
2018-11-07T06:47:01.219Z,8.63
2018-11-07T06:49:29.189Z,8.87
2018-11-07T06:51:57.172Z,8.63
2018-11-07T06:54:25.122Z,8.43
2018-11-07T06:56:53.200Z,8.40
2018-11-07T06:59:21.160Z,7.90
2018-11-07T07:01:49.131Z,7.80
2018-11-07T07:04:17.182Z,8.33
2018-11-07T07:06:45.145Z,9.60
2018-11-07T07:09:13.146Z,8.57
2018-11-07T07:11:41.096Z,9.87
2018-11-07T07:14:09.376Z,9.23
2018-11-07T07:16:37.304Z,8.33
2018-11-07T07:19:05.231Z,8.00
2018-11-07T07:21:33.229Z,8.23
2018-11-07T07:24:01.402Z,8.10
2018-11-07T07:26:29.471Z,8.10
2018-11-07T07:28:57.388Z,8.67
2018-11-07T07:31:25.295Z,9.37
2018-11-07T07:33:53.276Z,10.13
2018-11-07T07:36:21.187Z,9.30
2018-11-07T07:38:49.126Z,9.27
2018-11-07T07:41:17.155Z,8.80
2018-11-07T07:43:44.649Z,8.50
2018-11-07T16:00:26.111Z,4.47
2018-11-07T16:02:54.055Z,4.40
2018-11-07T16:05:21.988Z,3.43
2018-11-07T16:07:49.959Z,4.13
2018-11-07T16:10:18.009Z,3.93
2018-11-07T16:12:45.993Z,4.27
2018-11-07T16:15:15.106Z,5.60
2018-11-07T16:17:42.816Z,4.40
2018-11-07T16:20:11.827Z,5.00
2018-11-07T16:22:40.579Z,5.03
2018-11-07T16:25:08.760Z,5.13
2018-11-07T16:27:36.748Z,5.30
2018-11-07T16:30:06.232Z,5.30
2018-11-07T16:32:34.152Z,6.07
2018-11-07T16:35:02.104Z,6.27
2018-11-07T16:37:30.136Z,6.07
2018-11-07T16:39:58.077Z,6.17
2018-11-07T16:42:26.165Z,5.20
2018-11-07T16:44:54.133Z,5.00
2018-11-07T16:47:22.127Z,5.57
2018-11-07T16:49:50.109Z,5.00
2018-11-07T16:52:18.032Z,4.80
2018-11-07T16:54:46.077Z,4.53
2018-11-07T16:57:13.977Z,4.90
2018-11-07T16:59:41.996Z,6.17
2018-11-07T17:02:10.018Z,4.70
2018-11-07T17:04:38.014Z,4.53
2018-11-07T17:07:05.981Z,5.10
2018-11-07T17:09:33.844Z,5.10
2018-11-07T17:12:01.806Z,5.10
2018-11-07T17:14:29.732Z,4.77
2018-11-07T17:16:57.192Z,5.00
2018-11-07T17:19:25.132Z,4.30
2018-11-07T17:21:53.084Z,4.43
2018-11-07T17:24:21.031Z,4.00
2018-11-07T17:26:48.973Z,4.40
2018-11-07T17:29:16.820Z,3.53
2018-11-07T17:31:44.893Z,4.63
2018-11-07T17:34:13.054Z,4.37
2018-11-07T17:36:40.965Z,4.13
2018-11-07T17:39:08.956Z,3.70
2018-11-07T17:41:36.863Z,3.90
2018-11-07T17:44:04.783Z,4.50
2018-11-07T17:46:32.683Z,4.43
2018-11-07T17:49:00.635Z,4.47
2018-11-07T17:51:28.597Z,4.13
2018-11-07T17:53:56.564Z,4.60
2018-11-07T17:56:24.557Z,3.40
2018-11-07T17:58:52.569Z,3.63
2018-11-07T18:01:20.538Z,4.00
2018-11-07T18:03:48.515Z,3.13
2018-11-07T18:06:16.400Z,3.50
2018-11-07T18:08:44.399Z,4.00
2018-11-07T18:11:12.440Z,3.90
2018-11-07T18:13:40.420Z,4.27
2018-11-07T18:16:08.541Z,3.57
2018-11-07T18:18:36.885Z,3.90
2018-11-07T18:21:04.847Z,3.97
2018-11-07T18:23:32.880Z,3.63
2018-11-07T18:26:00.787Z,3.93
2018-11-07T18:28:28.756Z,3.90
2018-11-07T18:30:56.719Z,3.60
2018-11-07T18:33:24.684Z,3.70
2018-11-07T18:35:52.708Z,4.97
2018-11-07T18:38:20.532Z,3.90
2018-11-07T18:40:48.518Z,4.30
2018-11-07T18:43:16.593Z,4.00
2018-11-07T18:45:44.522Z,3.23
2018-11-07T18:48:13.025Z,3.27
2018-11-07T18:50:41.219Z,3.00
2018-11-07T18:53:09.645Z,3.30
2018-11-07T18:55:37.793Z,2.40
2018-11-07T18:58:05.946Z,2.47
2018-11-07T19:00:34.004Z,2.67
2018-11-07T19:03:01.962Z,2.10
2018-11-07T19:05:30.149Z,2.47
2018-11-07T19:07:58.203Z,1.83
2018-11-07T19:10:26.248Z,2.50
2018-11-07T19:12:54.263Z,2.27
2018-11-07T19:15:22.192Z,2.10
2018-11-07T19:17:50.929Z,2.10
2018-11-07T19:20:18.885Z,2.23
2018-11-07T19:22:46.875Z,1.63
2018-11-07T19:25:16.215Z,2.30
2018-11-07T19:27:44.185Z,2.25
2018-11-07T19:30:13.965Z,2.33
2018-11-07T19:32:42.584Z,2.07
2018-11-07T19:35:11.856Z,2.60
2018-11-07T19:37:39.988Z,2.30
2018-11-07T19:40:09.131Z,1.90
2018-11-07T19:42:37.122Z,2.00
2018-11-07T19:45:06.276Z,2.07
2018-11-07T19:47:34.471Z,2.20
2018-11-07T19:50:02.424Z,1.70
2018-11-07T19:52:30.373Z,1.90
2018-11-07T19:54:58.364Z,1.73
2018-11-07T19:57:26.231Z,2.07
2018-11-07T19:59:54.171Z,1.90
2018-11-07T20:02:22.092Z,1.80
2018-11-07T20:04:50.628Z,1.70
2018-11-07T20:07:18.693Z,1.67
2018-11-07T20:09:46.665Z,1.63
2018-11-07T20:12:14.706Z,2.03
2018-11-07T20:14:42.710Z,2.10
2018-11-07T20:17:10.311Z,2.00
2018-11-07T20:19:38.161Z,1.80
2018-11-07T20:22:06.072Z,1.70
2018-11-07T20:24:33.680Z,2.07
2018-11-07T20:27:01.640Z,2.10
2018-11-07T20:29:29.604Z,4.80
2018-11-07T20:31:57.560Z,16.77
2018-11-07T20:34:25.797Z,15.40
2018-11-07T20:36:53.893Z,33.93
2018-11-07T20:39:21.823Z,4.57
2018-11-07T20:41:49.923Z,3.97
2018-11-07T20:44:17.751Z,5.40
2018-11-07T20:46:45.720Z,3.40
2018-11-07T20:49:13.680Z,4.27
2018-11-07T20:51:41.707Z,3.83
2018-11-07T20:54:09.613Z,3.93
2018-11-07T20:56:38.038Z,4.40
2018-11-07T20:59:06.083Z,4.70
2018-11-07T21:01:34.113Z,4.00
2018-11-07T21:04:02.132Z,4.63
2018-11-07T21:06:30.244Z,4.50
2018-11-07T21:08:58.280Z,5.37
2018-11-07T21:11:26.325Z,5.07
2018-11-07T21:13:54.468Z,5.40
2018-11-07T21:16:22.480Z,5.17
2018-11-07T21:18:50.416Z,4.47
2018-11-07T21:21:18.358Z,5.00
2018-11-07T21:23:46.373Z,5.10
2018-11-07T21:26:14.341Z,4.50
2018-11-07T21:28:42.292Z,5.40
2018-11-07T21:31:10.316Z,5.13
2018-11-07T21:33:38.252Z,5.27
2018-11-07T21:36:06.288Z,5.10
2018-11-07T21:38:34.206Z,6.70
2018-11-07T21:41:02.162Z,5.30
2018-11-07T21:43:30.080Z,4.97
2018-11-07T21:45:58.102Z,5.80
2018-11-07T21:48:26.039Z,6.30
2018-11-07T21:50:53.964Z,4.97
2018-11-07T21:53:21.903Z,6.87
2018-11-07T21:55:49.840Z,6.20
2018-11-07T21:58:17.388Z,5.30
2018-11-07T22:00:46.212Z,4.60
2018-11-07T22:03:14.612Z,5.13
2018-11-07T22:05:42.568Z,5.30
2018-11-07T22:08:11.474Z,5.43
2018-11-07T22:10:39.605Z,5.30
2018-11-07T22:13:07.611Z,4.93
2018-11-07T22:15:35.620Z,4.73
2018-11-07T22:18:03.091Z,4.67
2018-11-07T22:20:31.196Z,5.10
2018-11-07T22:22:59.211Z,4.70
2018-11-07T22:25:28.156Z,4.97
2018-11-07T22:27:56.151Z,5.07
2018-11-07T22:30:24.092Z,4.67
2018-11-07T22:32:52.088Z,5.07
2018-11-07T22:35:20.033Z,4.30
2018-11-07T22:37:47.996Z,4.60
2018-11-07T22:40:17.129Z,4.53
2018-11-07T22:42:45.098Z,4.23
2018-11-07T22:45:14.241Z,4.23
2018-11-07T22:47:43.451Z,4.27
2018-11-07T22:50:17.580Z,3.60
2018-11-07T22:52:47.106Z,3.90
2018-11-07T22:55:15.859Z,3.77
2018-11-07T22:57:45.049Z,3.43
2018-11-07T23:00:20.508Z,3.60
2018-11-07T23:02:50.578Z,4.03
2018-11-07T23:05:22.698Z,3.33
2018-11-07T23:10:25.198Z,3.80
2018-11-07T23:12:53.135Z,3.60
2018-11-07T23:15:26.773Z,3.67
2018-11-07T23:17:54.233Z,4.17
2018-11-07T23:20:22.210Z,3.80
2018-11-07T23:22:50.190Z,4.17
2018-11-07T23:25:18.140Z,4.40
2018-11-07T23:27:46.423Z,4.50
2018-11-07T23:30:14.408Z,4.10
2018-11-07T23:32:42.372Z,5.03
2018-11-07T23:35:10.331Z,5.10
2018-11-07T23:37:38.252Z,5.47
2018-11-07T23:40:06.373Z,7.30
2018-11-07T23:42:34.486Z,6.90
